createdAt,value
2018-05-24T00:01:56.101Z,65.48
2018-05-24T00:04:25.360Z,65.81
2018-05-24T00:06:54.990Z,65.90
2018-05-24T00:09:24.205Z,65.90
2018-05-24T00:11:53.433Z,66.18
2018-05-24T00:14:22.638Z,65.86
2018-05-24T00:16:51.821Z,65.85
2018-05-24T00:19:22.009Z,65.93
2018-05-24T00:21:52.010Z,66.36
2018-05-24T00:24:21.806Z,66.39
2018-05-24T00:26:51.181Z,66.45
2018-05-24T00:29:20.625Z,66.77
2018-05-24T00:31:49.955Z,66.91
2018-05-24T00:34:19.298Z,67.11
2018-05-24T00:36:48.513Z,67.24
2018-05-24T00:39:17.733Z,67.68
2018-05-24T00:41:46.934Z,66.34
2018-05-24T00:44:16.145Z,64.95
2018-05-24T00:46:45.373Z,64.64
2018-05-24T00:49:14.930Z,63.68
2018-05-24T00:51:44.344Z,63.53
2018-05-24T00:54:13.570Z,63.43
2018-05-24T00:56:44.273Z,62.87
2018-05-24T00:59:14.252Z,62.66
2018-05-24T01:01:43.469Z,62.04
2018-05-24T01:04:12.833Z,61.90
2018-05-24T01:06:42.065Z,61.02
2018-05-24T01:09:11.284Z,61.46
2018-05-24T01:11:41.270Z,60.84
2018-05-24T01:14:11.943Z,60.47
2018-05-24T01:16:41.197Z,60.35
2018-05-24T01:19:11.913Z,60.92
2018-05-24T01:21:41.152Z,61.34
2018-05-24T01:24:10.345Z,61.42
2018-05-24T01:26:39.737Z,61.73
2018-05-24T01:29:09.736Z,62.05
2018-05-24T01:31:38.945Z,61.95
2018-05-24T01:34:08.933Z,61.71
2018-05-24T01:36:55.632Z,61.35
2018-05-24T01:39:24.858Z,61.26
2018-05-24T01:41:54.181Z,61.42
2018-05-24T01:44:23.369Z,60.95
2018-05-24T01:46:52.709Z,60.67
2018-05-24T01:49:21.908Z,60.36
2018-05-24T01:51:51.125Z,60.81
2018-05-24T01:54:20.325Z,61.42
2018-05-24T01:56:49.638Z,61.35
2018-05-24T01:59:18.840Z,62.02
2018-05-24T02:01:48.145Z,62.53
2018-05-24T02:04:17.349Z,62.35
2018-05-24T02:06:46.545Z,62.38
2018-05-24T02:09:15.860Z,62.34
2018-05-24T02:11:45.058Z,62.58
2018-05-24T02:14:15.148Z,62.71
2018-05-24T02:16:44.344Z,63.30
2018-05-24T02:19:13.658Z,65.66
2018-05-24T02:21:44.585Z,68.15
2018-05-24T02:24:13.871Z,68.89
2018-05-24T02:26:43.080Z,70.65
2018-05-24T02:29:12.327Z,71.89
2018-05-24T02:31:41.477Z,72.61
2018-05-24T02:34:11.480Z,72.27
2018-05-24T02:36:40.865Z,73.26
2018-05-24T02:39:10.074Z,73.64
2018-05-24T02:41:39.271Z,75.22
2018-05-24T02:44:08.542Z,75.07
2018-05-24T02:46:37.766Z,75.01
2018-05-24T02:49:06.990Z,76.20
2018-05-24T02:51:36.217Z,77.15
2018-05-24T02:54:05.428Z,76.73
2018-05-24T02:56:35.396Z,77.57
2018-05-24T02:59:04.686Z,78.18
2018-05-24T03:01:33.988Z,77.95
2018-05-24T03:04:04.247Z,78.02
2018-05-24T03:06:34.419Z,78.12
2018-05-24T03:09:03.599Z,77.73
2018-05-24T03:11:32.871Z,77.87
2018-05-24T03:14:02.855Z,78.26
2018-05-24T03:16:32.069Z,78.09
2018-05-24T03:19:02.231Z,77.54
2018-05-24T03:21:31.420Z,77.58
2018-05-24T03:24:00.746Z,77.73
2018-05-24T03:26:30.234Z,77.88
2018-05-24T03:28:59.453Z,77.53
2018-05-24T03:31:28.680Z,77.67
2018-05-24T03:33:57.906Z,78.08
2018-05-24T03:36:27.131Z,78.72
2018-05-24T03:38:56.420Z,78.90
2018-05-24T03:41:25.637Z,78.97
2018-05-24T03:43:54.877Z,79.55
2018-05-24T03:46:24.865Z,79.79
2018-05-24T03:48:54.085Z,79.50
2018-05-24T03:51:23.299Z,79.53
2018-05-24T03:53:52.749Z,79.42
2018-05-24T03:56:22.167Z,79.15
2018-05-24T03:58:51.350Z,79.02
2018-05-24T04:01:39.446Z,78.04
2018-05-24T04:04:26.654Z,77.73
2018-05-24T04:06:56.655Z,77.77
2018-05-24T04:09:25.891Z,78.05
2018-05-24T04:11:55.940Z,78.30
2018-05-24T04:14:25.184Z,78.41
2018-05-24T04:16:55.249Z,78.30
2018-05-24T04:19:24.492Z,78.79
2018-05-24T04:21:53.744Z,79.02
2018-05-24T04:24:23.000Z,80.25
2018-05-24T04:26:52.981Z,80.12
2018-05-24T04:29:22.392Z,80.14
2018-05-24T04:31:51.595Z,80.72
2018-05-24T04:34:20.885Z,81.14
2018-05-24T04:36:50.110Z,81.09
2018-05-24T04:39:19.397Z,81.44
2018-05-24T04:41:48.602Z,81.06
2018-05-24T04:44:17.880Z,81.06
2018-05-24T04:46:47.125Z,81.43
2018-05-24T04:49:16.329Z,81.22
2018-05-24T04:51:45.538Z,81.20
2018-05-24T04:54:14.771Z,81.56
2018-05-24T04:56:43.997Z,81.86
2018-05-24T04:59:14.033Z,81.99
2018-05-24T05:01:44.183Z,81.94
2018-05-24T05:04:13.582Z,81.90
2018-05-24T05:06:42.918Z,82.00
2018-05-24T05:09:13.625Z,82.43
2018-05-24T05:11:43.684Z,82.75
2018-05-24T05:14:13.685Z,82.96
2018-05-24T05:16:44.669Z,83.08
2018-05-24T05:19:14.061Z,83.16
2018-05-24T05:21:43.302Z,83.90
2018-05-24T05:24:12.555Z,83.25
2018-05-24T05:26:41.777Z,83.45
2018-05-24T05:29:10.998Z,83.17
2018-05-24T05:31:40.281Z,82.82
2018-05-24T05:34:09.515Z,80.71
2018-05-24T05:36:39.510Z,80.89
2018-05-24T05:39:08.714Z,80.49
2018-05-24T05:41:37.934Z,79.48
2018-05-24T05:44:07.966Z,78.14
2018-05-24T05:46:37.979Z,77.40
2018-05-24T05:49:07.945Z,78.56
2018-05-24T05:51:37.161Z,78.56
2018-05-24T05:54:07.178Z,78.01
2018-05-24T05:56:36.381Z,77.64
2018-05-24T05:59:05.628Z,78.60
2018-05-24T06:01:34.865Z,78.43
2018-05-24T06:04:04.771Z,78.27
2018-05-24T06:06:34.008Z,78.87
2018-05-24T06:09:03.962Z,77.87
2018-05-24T06:11:33.174Z,78.33
2018-05-24T06:14:02.409Z,78.93
2018-05-24T06:16:31.653Z,79.10
2018-05-24T06:19:01.619Z,78.74
2018-05-24T06:21:31.045Z,78.07
2018-05-24T06:24:00.217Z,77.43
2018-05-24T06:26:29.430Z,79.00
2018-05-24T06:28:59.415Z,78.80
2018-05-24T06:31:28.632Z,79.78
2018-05-24T06:33:58.625Z,79.13
2018-05-24T06:36:27.866Z,78.82
2018-05-24T06:38:57.870Z,79.58
2018-05-24T06:41:27.081Z,79.36
2018-05-24T06:43:57.043Z,79.68
2018-05-24T06:46:26.287Z,78.33
2018-05-24T06:48:55.468Z,78.28
2018-05-24T06:51:24.673Z,78.92
2018-05-24T06:53:54.876Z,77.75
2018-05-24T06:56:24.090Z,77.86
2018-05-24T06:58:54.090Z,77.31
2018-05-24T07:01:23.321Z,75.70
2018-05-24T07:03:52.705Z,75.11
2018-05-24T07:06:22.839Z,73.40
2018-05-24T07:08:52.845Z,73.97
2018-05-24T07:11:22.058Z,73.63
2018-05-24T07:13:52.125Z,72.68
2018-05-24T07:16:21.375Z,72.05
2018-05-24T07:18:51.364Z,72.25
2018-05-24T07:21:21.365Z,72.77
2018-05-24T07:23:50.588Z,72.77
2018-05-24T07:26:20.580Z,71.93
2018-05-24T07:28:49.808Z,71.04
2018-05-24T07:31:19.828Z,71.06
2018-05-24T07:33:49.796Z,71.27
2018-05-24T07:36:19.025Z,71.33
2018-05-24T07:38:48.998Z,71.09
2018-05-24T07:41:18.225Z,70.35
2018-05-24T07:43:47.461Z,71.03
2018-05-24T07:46:16.835Z,70.20
2018-05-24T07:48:46.022Z,70.03
2018-05-24T07:51:16.017Z,71.54
2018-05-24T07:53:46.318Z,69.62
2018-05-24T07:56:15.538Z,69.16
2018-05-24T07:58:45.409Z,68.10
2018-05-24T08:01:14.669Z,67.67
2018-05-24T08:03:43.886Z,67.89
2018-05-24T08:06:13.894Z,68.41
2018-05-24T08:08:43.911Z,67.90
2018-05-24T08:11:13.249Z,69.87
2018-05-24T08:13:42.486Z,66.78
2018-05-24T08:16:11.679Z,66.41
2018-05-24T08:18:40.944Z,65.71
2018-05-24T08:21:10.133Z,62.75
2018-05-24T08:23:39.360Z,61.49
2018-05-24T08:26:08.721Z,62.17
2018-05-24T08:28:37.908Z,62.42
2018-05-24T08:31:07.151Z,62.80
2018-05-24T08:33:36.517Z,62.74
2018-05-24T08:36:05.731Z,62.31
2018-05-24T08:38:34.976Z,62.86
2018-05-24T08:41:04.193Z,63.14
2018-05-24T08:43:34.200Z,62.79
2018-05-24T08:46:04.201Z,62.87
2018-05-24T08:48:33.448Z,63.13
2018-05-24T08:51:03.421Z,62.26
2018-05-24T08:53:32.838Z,61.10
2018-05-24T08:56:02.049Z,60.86
2018-05-24T08:58:31.292Z,60.98
2018-05-24T09:01:00.582Z,61.74
2018-05-24T09:03:29.824Z,59.27
2018-05-24T09:05:59.259Z,60.39
2018-05-24T09:08:29.265Z,59.22
2018-05-24T09:10:59.344Z,59.38
2018-05-24T09:13:28.662Z,59.85
2018-05-24T09:15:57.936Z,59.38
2018-05-24T09:18:27.273Z,59.10
2018-05-24T09:20:57.255Z,59.05
2018-05-24T09:23:26.484Z,59.37
2018-05-24T09:25:56.493Z,59.98
2018-05-24T09:28:25.866Z,58.64
2018-05-24T09:30:55.244Z,59.33
2018-05-24T09:33:24.502Z,59.60
2018-05-24T09:35:54.506Z,59.21
2018-05-24T09:38:23.713Z,58.53
2018-05-24T09:40:53.725Z,58.25
2018-05-24T09:43:23.153Z,59.10
2018-05-24T09:45:54.191Z,59.13
2018-05-24T09:48:24.165Z,59.44
2018-05-24T09:50:53.452Z,58.78
2018-05-24T09:53:22.675Z,59.78
2018-05-24T09:55:52.929Z,60.60
2018-05-24T09:58:22.145Z,59.65
2018-05-24T10:00:51.367Z,61.03
2018-05-24T10:03:20.575Z,60.01
2018-05-24T10:05:49.804Z,59.84
2018-05-24T10:08:19.793Z,59.99
2018-05-24T10:10:49.069Z,60.38
2018-05-24T10:13:18.411Z,61.32
2018-05-24T10:15:48.506Z,59.77
2018-05-24T10:18:17.733Z,60.93
2018-05-24T10:20:47.722Z,59.82
2018-05-24T10:23:16.941Z,60.03
2018-05-24T10:25:46.149Z,59.09
2018-05-24T10:28:16.141Z,59.66
2018-05-24T10:30:46.143Z,60.24
2018-05-24T10:33:15.374Z,60.47
2018-05-24T10:35:44.978Z,59.37
2018-05-24T10:38:15.020Z,59.26
2018-05-24T10:40:44.250Z,60.40
2018-05-24T10:43:13.441Z,59.80
2018-05-24T10:45:42.669Z,59.67
2018-05-24T10:48:11.872Z,59.21
2018-05-24T10:50:41.121Z,58.98
2018-05-24T10:53:10.350Z,59.18
2018-05-24T10:55:39.606Z,59.57
2018-05-24T10:58:08.846Z,59.50
2018-05-24T11:00:38.095Z,59.58
2018-05-24T11:03:07.381Z,60.07
2018-05-24T11:05:37.289Z,59.55
2018-05-24T11:08:06.505Z,60.00
2018-05-24T11:10:35.731Z,60.28
2018-05-24T11:13:04.935Z,59.58
2018-05-24T11:15:34.159Z,58.75
2018-05-24T11:18:03.409Z,59.59
2018-05-24T11:20:32.727Z,58.92
2018-05-24T11:23:01.940Z,58.68
2018-05-24T11:25:31.159Z,57.58
2018-05-24T11:28:02.069Z,57.85
2018-05-24T11:30:31.310Z,58.49
2018-05-24T11:33:01.278Z,58.94
2018-05-24T11:35:30.595Z,58.62
2018-05-24T11:37:59.777Z,59.36
2018-05-24T11:40:29.200Z,60.32
2018-05-24T11:42:58.465Z,60.66
2018-05-24T11:45:27.674Z,61.36
2018-05-24T11:47:56.893Z,61.98
2018-05-24T11:50:26.229Z,63.37
2018-05-24T11:52:55.485Z,63.38
2018-05-24T11:55:24.724Z,64.35
2018-05-24T11:57:54.727Z,65.27
2018-05-24T12:00:24.066Z,66.00
2018-05-24T12:02:53.319Z,66.69
2018-05-24T12:05:22.520Z,67.15
2018-05-24T12:07:52.511Z,67.20
2018-05-24T12:10:21.724Z,67.73
2018-05-24T12:12:50.945Z,68.18
2018-05-24T12:15:21.065Z,68.83
2018-05-24T12:17:50.321Z,68.96
2018-05-24T12:20:19.578Z,69.47
2018-05-24T12:22:48.810Z,70.64
2018-05-24T12:25:18.044Z,71.48
2018-05-24T12:27:48.032Z,72.11
2018-05-24T12:30:17.429Z,72.19
2018-05-24T12:32:46.660Z,73.11
2018-05-24T12:35:16.002Z,72.50
2018-05-24T12:37:45.097Z,72.14
2018-05-24T12:40:14.328Z,72.10
2018-05-24T12:42:43.663Z,72.79
2018-05-24T12:45:13.733Z,72.52
2018-05-24T12:47:42.904Z,72.97
2018-05-24T12:50:12.874Z,72.68
2018-05-24T12:52:42.236Z,72.62
2018-05-24T12:55:11.677Z,72.73
2018-05-24T12:57:40.995Z,71.97
2018-05-24T13:00:11.008Z,71.85
2018-05-24T13:02:41.093Z,72.19
2018-05-24T13:05:10.305Z,72.15
2018-05-24T13:07:39.721Z,71.33
2018-05-24T13:10:09.772Z,70.85
2018-05-24T13:12:39.052Z,70.54
2018-05-24T13:15:09.241Z,70.20
2018-05-24T13:17:38.480Z,70.18
2018-05-24T13:20:08.457Z,68.87
2018-05-24T13:22:37.761Z,69.30
2018-05-24T13:25:07.073Z,69.09
2018-05-24T13:27:37.070Z,68.75
2018-05-24T13:30:06.268Z,68.87
2018-05-24T13:32:35.637Z,68.25
2018-05-24T13:35:04.865Z,68.35
2018-05-24T13:37:34.126Z,68.66
2018-05-24T13:40:03.429Z,68.98
2018-05-24T13:42:32.733Z,69.20
2018-05-24T13:45:01.944Z,69.85
2018-05-24T13:47:31.177Z,70.16
2018-05-24T13:50:00.456Z,70.60
2018-05-24T13:52:29.686Z,70.80
2018-05-24T13:54:59.686Z,70.89
2018-05-24T13:57:43.848Z,70.89
2018-05-24T14:00:13.069Z,71.30
2018-05-24T14:02:42.428Z,71.78
2018-05-24T14:05:11.683Z,71.83
2018-05-24T14:07:41.088Z,72.41
2018-05-24T14:10:10.295Z,73.05
2018-05-24T14:12:39.726Z,73.69
2018-05-24T14:15:09.720Z,73.79
2018-05-24T14:17:38.938Z,74.20
2018-05-24T14:20:08.253Z,74.43
2018-05-24T14:22:38.300Z,74.82
2018-05-24T14:25:08.291Z,75.54
2018-05-24T14:27:38.264Z,75.83
2018-05-24T14:30:07.502Z,76.03
2018-05-24T14:32:37.627Z,75.50
2018-05-24T14:35:07.677Z,74.92
2018-05-24T14:37:36.890Z,74.49
2018-05-24T14:40:06.142Z,75.10
2018-05-24T14:42:36.110Z,75.13
2018-05-24T14:45:05.439Z,75.19
2018-05-24T14:47:34.645Z,75.82
2018-05-24T14:50:04.890Z,74.58
2018-05-24T14:52:34.110Z,74.98
2018-05-24T14:55:04.449Z,73.87
2018-05-24T14:57:33.706Z,74.09
2018-05-24T15:00:02.887Z,74.73
2018-05-24T15:02:32.903Z,74.57
2018-05-24T15:05:02.898Z,74.76
2018-05-24T15:07:32.113Z,75.06
2018-05-24T15:10:01.518Z,75.14
2018-05-24T15:12:31.529Z,75.32
2018-05-24T15:15:00.816Z,74.55
2018-05-24T15:17:30.856Z,75.59
2018-05-24T15:20:00.834Z,73.55
2018-05-24T15:22:30.048Z,71.68
2018-05-24T15:24:59.310Z,71.81
2018-05-24T15:27:28.562Z,72.07
2018-05-24T15:29:57.775Z,71.94
2018-05-24T15:32:27.103Z,71.62
2018-05-24T15:34:56.353Z,71.57
2018-05-24T15:37:26.470Z,71.92
2018-05-24T15:39:56.478Z,71.53
2018-05-24T15:42:25.723Z,71.66
2018-05-24T15:44:54.947Z,72.02
2018-05-24T15:47:24.191Z,72.11
2018-05-24T15:49:53.448Z,71.98
2018-05-24T15:52:22.639Z,72.71
2018-05-24T15:54:51.861Z,72.32
2018-05-24T15:57:21.087Z,72.68
2018-05-24T15:59:50.361Z,72.78
2018-05-24T16:02:19.570Z,72.29
2018-05-24T16:04:48.844Z,72.12
2018-05-24T16:07:18.096Z,72.20
2018-05-24T16:09:48.070Z,71.93
2018-05-24T16:12:17.285Z,71.75
2018-05-24T16:14:47.410Z,71.52
2018-05-24T16:17:16.629Z,71.81
2018-05-24T16:19:45.889Z,71.49
2018-05-24T16:22:15.154Z,71.51
2018-05-24T16:24:44.422Z,71.87
2018-05-24T16:27:13.663Z,71.80
2018-05-24T16:29:43.680Z,71.92
2018-05-24T16:32:12.945Z,71.81
2018-05-24T16:34:42.765Z,71.54
2018-05-24T16:37:12.352Z,71.75
2018-05-24T16:39:41.556Z,71.84
2018-05-24T16:42:10.836Z,71.64
2018-05-24T16:44:40.072Z,71.89
2018-05-24T16:47:09.333Z,71.76
2018-05-24T16:49:38.558Z,71.70
2018-05-24T16:52:07.817Z,71.20
2018-05-24T16:54:37.222Z,71.18
2018-05-24T16:57:06.464Z,70.65
2018-05-24T16:59:35.897Z,70.48
2018-05-24T17:02:06.637Z,70.68
2018-05-24T17:04:35.869Z,69.53
2018-05-24T17:07:05.975Z,69.23
2018-05-24T17:09:35.219Z,68.82
2018-05-24T17:12:04.514Z,68.62
2018-05-24T17:14:33.762Z,68.95
2018-05-24T17:17:03.037Z,68.74
2018-05-24T17:19:32.260Z,68.99
2018-05-24T17:22:02.280Z,68.98
2018-05-24T17:24:31.556Z,69.30
2018-05-24T17:27:00.775Z,69.49
2018-05-24T17:29:30.776Z,69.43
2018-05-24T17:32:00.094Z,69.63
2018-05-24T17:34:29.479Z,69.49
2018-05-24T17:36:59.481Z,69.16
2018-05-24T17:39:30.226Z,69.40
2018-05-24T17:41:59.521Z,69.46
2018-05-24T17:44:28.781Z,69.84
2018-05-24T17:46:58.404Z,69.79
2018-05-24T17:49:27.626Z,69.60
2018-05-24T17:51:56.878Z,69.80
2018-05-24T17:54:26.190Z,69.63
2018-05-24T17:56:55.440Z,69.90
2018-05-24T17:59:25.441Z,69.71
2018-05-24T18:01:54.688Z,69.84
2018-05-24T18:04:23.913Z,69.76
2018-05-24T18:06:53.156Z,69.85
2018-05-24T18:09:23.348Z,69.86
2018-05-24T18:11:52.617Z,69.82
2018-05-24T18:14:21.873Z,69.91
2018-05-24T18:16:51.243Z,70.23
2018-05-24T18:19:20.493Z,70.16
2018-05-24T18:21:50.394Z,70.07
2018-05-24T18:24:19.706Z,70.31
2018-05-24T18:26:48.949Z,70.61
2018-05-24T18:29:18.214Z,70.66
2018-05-24T18:31:47.437Z,70.51
2018-05-24T18:34:16.826Z,70.46
2018-05-24T18:36:46.168Z,70.70
2018-05-24T18:39:16.271Z,70.73
2018-05-24T18:41:45.690Z,70.88
2018-05-24T18:44:15.070Z,70.87
2018-05-24T18:46:44.360Z,70.94
2018-05-24T18:49:13.645Z,71.18
2018-05-24T18:51:42.863Z,71.20
2018-05-24T18:54:12.117Z,71.33
2018-05-24T18:56:41.335Z,71.42
2018-05-24T18:59:10.572Z,71.49
2018-05-24T19:01:39.826Z,71.61
2018-05-24T19:04:09.407Z,71.61
2018-05-24T19:06:39.451Z,71.60
2018-05-24T19:09:08.813Z,71.57
2018-05-24T19:11:38.125Z,71.63
2018-05-24T19:14:08.117Z,71.55
2018-05-24T19:16:37.395Z,71.71
2018-05-24T19:19:06.685Z,71.68
2018-05-24T19:21:35.903Z,71.77
2018-05-24T19:24:05.169Z,72.16
2018-05-24T19:26:34.398Z,72.53
2018-05-24T19:29:03.719Z,73.10
2018-05-24T19:31:33.977Z,73.33
2018-05-24T19:34:03.264Z,73.57
2018-05-24T19:36:32.527Z,73.97
2018-05-24T19:39:01.741Z,74.08
2018-05-24T19:41:31.778Z,74.23
2018-05-24T19:44:00.989Z,74.36
2018-05-24T19:46:30.226Z,74.53
2018-05-24T19:48:59.476Z,74.65
2018-05-24T19:51:28.804Z,74.83
2018-05-24T19:53:58.058Z,74.79
2018-05-24T19:56:27.274Z,74.87
2018-05-24T19:58:56.495Z,74.85
2018-05-24T20:01:25.772Z,75.02
2018-05-24T20:03:55.010Z,74.99
2018-05-24T20:06:24.393Z,74.98
2018-05-24T20:08:53.845Z,75.29
2018-05-24T20:11:23.856Z,75.50
2018-05-24T20:13:53.859Z,75.67
2018-05-24T20:16:23.118Z,77.41
2018-05-24T20:18:52.372Z,78.82
2018-05-24T20:21:22.424Z,79.52
2018-05-24T20:23:51.710Z,80.45
2018-05-24T20:26:20.925Z,81.30
2018-05-24T20:28:50.200Z,80.81
2018-05-24T20:31:20.183Z,81.02
2018-05-24T20:33:49.442Z,81.47
2018-05-24T20:36:18.670Z,81.59
2018-05-24T20:38:47.905Z,81.51
2018-05-24T20:41:17.137Z,82.13
2018-05-24T20:43:46.362Z,82.14
2018-05-24T20:46:16.377Z,81.76
2018-05-24T20:48:45.630Z,82.46
2018-05-24T20:51:14.892Z,82.74
2018-05-24T20:53:44.203Z,82.70
2018-05-24T20:56:13.442Z,82.54
2018-05-24T20:58:42.695Z,82.62
2018-05-24T21:01:12.770Z,82.48
2018-05-24T21:03:42.025Z,82.54
2018-05-24T21:06:11.298Z,82.36
2018-05-24T21:08:40.514Z,82.70
2018-05-24T21:11:10.499Z,82.63
2018-05-24T21:13:39.738Z,82.71
2018-05-24T21:16:09.929Z,82.71
2018-05-24T21:18:39.202Z,82.69
2018-05-24T21:21:08.442Z,82.60
2018-05-24T21:23:38.481Z,82.60
2018-05-24T21:26:07.770Z,82.69
2018-05-24T21:28:37.046Z,82.64
2018-05-24T21:31:06.295Z,82.77
2018-05-24T21:33:35.649Z,82.66
2018-05-24T21:36:04.885Z,82.59
2018-05-24T21:38:34.120Z,82.75
2018-05-24T21:41:03.393Z,82.50
2018-05-24T21:43:32.665Z,82.65
2018-05-24T21:46:01.910Z,82.97
2018-05-24T21:48:31.155Z,82.65
2018-05-24T21:51:01.275Z,82.73
2018-05-24T21:53:31.258Z,83.03
2018-05-24T21:56:01.357Z,83.09
2018-05-24T21:58:30.594Z,83.42
2018-05-24T22:00:59.989Z,83.39
2018-05-24T22:03:29.217Z,83.55
2018-05-24T22:05:58.448Z,83.81
2018-05-24T22:08:27.676Z,83.93
2018-05-24T22:10:56.958Z,83.76
2018-05-24T22:13:26.171Z,83.65
2018-05-24T22:15:55.385Z,83.82
2018-05-24T22:18:25.473Z,83.70
2018-05-24T22:20:54.682Z,84.31
2018-05-24T22:23:23.920Z,84.33
2018-05-24T22:25:53.264Z,84.48
2018-05-24T22:28:22.515Z,84.71
2018-05-24T22:30:51.737Z,84.76
2018-05-24T22:33:21.565Z,84.38
2018-05-24T22:35:50.773Z,84.28
2018-05-24T22:38:20.045Z,84.54
2018-05-24T22:40:49.410Z,84.29
2018-05-24T22:43:18.594Z,84.26
2018-05-24T22:45:48.598Z,84.10
2018-05-24T22:48:18.040Z,84.19
2018-05-24T22:50:48.074Z,84.03
2018-05-24T22:53:17.302Z,84.39
2018-05-24T22:55:46.529Z,83.81
2018-05-24T22:58:16.609Z,84.10
2018-05-24T23:00:46.035Z,83.99
2018-05-24T23:03:15.462Z,84.13
2018-05-24T23:05:44.677Z,84.33
2018-05-24T23:08:14.652Z,84.52
2018-05-24T23:10:43.917Z,84.21
2018-05-24T23:13:13.141Z,84.11
2018-05-24T23:15:42.369Z,84.63
2018-05-24T23:18:12.432Z,84.47
2018-05-24T23:20:41.762Z,84.65
2018-05-24T23:23:11.061Z,84.46
2018-05-24T23:25:42.000Z,84.69
2018-05-24T23:28:11.413Z,84.79
2018-05-24T23:30:40.625Z,84.68
2018-05-24T23:33:10.646Z,84.80
2018-05-24T23:35:39.886Z,84.62
2018-05-24T23:38:09.089Z,84.13
2018-05-24T23:40:38.341Z,84.14
2018-05-24T23:43:07.583Z,84.40
2018-05-24T23:45:36.803Z,84.41
2018-05-24T23:48:06.051Z,84.15
2018-05-24T23:50:35.323Z,84.16
2018-05-24T23:53:05.307Z,84.15
2018-05-24T23:55:34.509Z,84.10
2018-05-24T23:58:03.762Z,84.19
